Time;durP1;ratioP1;P1;durP2;ratioP2;P2;SDS_P1;SDS_P2;PMS_P1;PMS_P2;Temp;Humidity;BMP_temperature;BMP_pressure;BME280_temperature;BME280_humidity;BME280_pressure;Samples;Min_cycle;Max_cycle;Signal;HPM_P1;HPM_P2
2021/09/07 00:02:11;;;;;;;12.30;9.27;;;;;;;;;;5036389;28;20203;-78
2021/09/07 00:04:37;;;;;;;11.83;8.80;;;16.60;1.00;;;;;;5037897;28;20220;-78
2021/09/07 00:07:03;;;;;;;12.50;8.83;;;16.50;1.00;;;;;;5039783;28;20228;-78
2021/09/07 00:09:29;;;;;;;14.33;9.10;;;;;;;;;;5037426;28;20648;-78
2021/09/07 00:11:55;;;;;;;13.47;8.63;;;;;;;;;;5034105;28;20665;-78
2021/09/07 00:14:21;;;;;;;12.73;8.63;;;;;;;;;;5025824;28;20731;-78
2021/09/07 00:16:48;;;;;;;14.93;9.50;;;;;;;;;;5018587;28;20188;-78
2021/09/07 00:19:14;;;;;;;12.87;8.70;;;;;;;;;;5036225;28;20224;-78
2021/09/07 00:21:40;;;;;;;12.80;8.77;;;16.50;1.00;;;;;;5028789;28;20204;-78
2021/09/07 00:24:06;;;;;;;13.43;9.10;;;16.50;1.00;;;;;;5013661;28;20656;-78
2021/09/07 00:26:31;;;;;;;11.50;8.70;;;;;;;;;;5012253;28;20215;-78
2021/09/07 00:28:57;;;;;;;11.60;7.90;;;16.40;1.00;;;;;;5036247;28;20208;-78
2021/09/07 00:31:23;;;;;;;13.63;9.33;;;16.40;1.00;;;;;;5009935;28;20194;-78
2021/09/07 00:33:48;;;;;;;13.47;8.33;;;16.40;1.00;;;;;;5012960;28;20197;-78
2021/09/07 00:36:14;;;;;;;13.70;9.27;;;16.40;1.00;;;;;;5016589;28;20187;-78
2021/09/07 00:38:40;;;;;;;13.27;8.37;;;;;;;;;;5037426;28;20196;-78
2021/09/07 00:41:06;;;;;;;13.53;8.33;;;;;;;;;;5033555;28;21142;-79
2021/09/07 00:43:32;;;;;;;11.03;8.67;;;16.30;1.00;;;;;;5033128;28;20187;-78
2021/09/07 00:45:57;;;;;;;11.30;7.83;;;16.20;1.00;;;;;;5032302;28;20688;-80
2021/09/07 00:48:23;;;;;;;10.67;7.87;;;16.20;1.00;;;;;;5017679;28;20747;-80
2021/09/07 00:50:49;;;;;;;13.73;8.20;;;16.10;1.00;;;;;;5030176;28;20256;-80
2021/09/07 00:53:15;;;;;;;12.37;8.57;;;16.10;1.00;;;;;;5013642;28;20239;-79
2021/09/07 00:55:45;;;;;;;11.97;8.60;;;16.00;1.00;;;;;;5010972;28;20204;-79
2021/09/07 00:58:14;;;;;;;12.13;8.07;;;16.00;1.00;;;;;;5019356;28;20725;-80
2021/09/07 01:00:41;;;;;;;11.90;8.60;;;16.00;1.00;;;;;;5032064;28;20204;-80
2021/09/07 01:03:07;;;;;;;15.60;8.77;;;;;;;;;;5028358;28;20216;-80
2021/09/07 01:05:34;;;;;;;10.93;8.13;;;16.00;1.00;;;;;;5019542;28;20702;-80
2021/09/07 01:08:01;;;;;;;11.07;7.80;;;;;;;;;;5020752;28;20227;-80
2021/09/07 01:10:27;;;;;;;12.03;8.17;;;;;;;;;;5023150;28;20193;-80
2021/09/07 01:12:53;;;;;;;13.60;9.17;;;16.10;1.00;;;;;;5018504;28;20188;-80
2021/09/07 01:15:19;;;;;;;10.10;7.93;;;16.10;1.00;;;;;;5020823;28;20670;-80
2021/09/07 01:17:45;;;;;;;12.00;8.87;;;16.00;1.00;;;;;;5039366;28;20192;-80
2021/09/07 01:20:11;;;;;;;19.53;9.10;;;;;;;;;;5038311;28;20199;-80
2021/09/07 01:22:37;;;;;;;15.57;10.00;;;;;;;;;;5026705;28;20220;-80
2021/09/07 01:25:03;;;;;;;13.30;9.03;;;15.90;1.00;;;;;;5040546;28;20199;-80
2021/09/07 01:27:29;;;;;;;15.00;9.03;;;16.00;1.00;;;;;;5034812;28;20216;-80
2021/09/07 01:29:54;;;;;;;12.33;8.60;;;16.00;1.00;;;;;;5045752;28;20250;-80
2021/09/07 01:32:21;;;;;;;13.73;9.47;;;;;;;;;;5039629;28;20277;-80
2021/09/07 01:34:47;;;;;;;12.83;9.37;;;16.10;1.00;;;;;;5034154;28;20180;-80
2021/09/07 01:37:13;;;;;;;12.93;8.73;;;;;;;;;;5039681;28;20267;-80
2021/09/07 01:39:39;;;;;;;12.83;9.47;;;;;;;;;;5038930;28;20299;-80
2021/09/07 01:42:06;;;;;;;12.30;8.97;;;16.00;1.00;;;;;;5037220;28;20192;-80
2021/09/07 01:44:32;;;;;;;11.93;9.23;;;;;;;;;;5015712;28;20307;-80
2021/09/07 01:46:59;;;;;;;14.17;9.37;;;;;;;;;;5022806;28;20252;-80
2021/09/07 01:49:24;;;;;;;11.80;8.87;;;15.80;1.00;;;;;;5035816;28;20219;-80
2021/09/07 01:51:51;;;;;;;12.73;8.47;;;15.70;1.00;;;;;;5018738;28;20192;-80
2021/09/07 01:54:17;;;;;;;10.63;8.43;;;15.70;1.00;;;;;;5035619;28;20558;-80
2021/09/07 01:56:43;;;;;;;11.87;8.57;;;;;;;;;;5043242;28;20274;-80
2021/09/07 01:59:09;;;;;;;15.53;8.83;;;15.70;1.00;;;;;;5016912;28;20196;-80
2021/09/07 02:01:35;;;;;;;13.70;8.87;;;15.70;1.00;;;;;;5032788;28;20187;-80
2021/09/07 02:04:01;;;;;;;14.17;9.00;;;;;;;;;;5035882;28;20209;-80
2021/09/07 02:06:28;;;;;;;12.83;8.60;;;15.60;1.00;;;;;;5019401;28;20239;-80
2021/09/07 02:08:54;;;;;;;11.67;8.80;;;;;;;;;;5036707;28;20239;-80
2021/09/07 02:11:19;;;;;;;13.13;8.33;;;15.60;1.00;;;;;;5032403;28;20607;-80
2021/09/07 02:13:45;;;;;;;12.77;9.23;;;;;;;;;;5019427;28;20254;-80
2021/09/07 02:16:11;;;;;;;12.60;8.37;;;;;;;;;;5035267;28;20201;-80
2021/09/07 02:18:38;;;;;;;12.30;8.60;;;15.60;1.00;;;;;;5019813;28;20253;-80
2021/09/07 02:21:03;;;;;;;12.37;8.80;;;;;;;;;;5029522;28;20204;-80
2021/09/07 02:23:29;;;;;;;12.63;8.63;;;15.60;1.00;;;;;;5026457;28;20195;-80
2021/09/07 02:25:55;;;;;;;11.13;9.00;;;;;;;;;;5039000;28;20192;-80
2021/09/07 02:28:21;;;;;;;15.03;10.07;;;;;;;;;;5023227;28;20222;-80
2021/09/07 02:30:47;;;;;;;14.47;8.90;;;;;;;;;;5016692;28;20191;-80
2021/09/07 02:33:13;;;;;;;13.03;8.97;;;15.60;1.00;;;;;;5028101;28;20180;-80
2021/09/07 02:35:38;;;;;;;14.03;9.57;;;15.60;1.00;;;;;;5029792;28;20288;-80
2021/09/07 02:38:04;;;;;;;15.53;8.77;;;15.60;1.00;;;;;;5031751;28;20192;-80
2021/09/07 02:40:30;;;;;;;11.73;8.80;;;15.60;1.00;;;;;;5032039;28;20188;-80
2021/09/07 02:42:56;;;;;;;13.53;8.97;;;;;;;;;;5014642;28;20202;-80
2021/09/07 02:45:22;;;;;;;13.67;9.17;;;;;;;;;;5016585;28;20297;-79
2021/09/07 02:47:48;;;;;;;13.13;9.53;;;15.50;1.00;;;;;;5019960;28;20287;-80
2021/09/07 02:50:16;;;;;;;14.20;8.83;;;15.60;1.00;;;;;;5017816;28;20234;-80
2021/09/07 02:52:42;;;;;;;12.83;9.00;;;;;;;;;;5032721;28;20668;-80
2021/09/07 02:55:10;;;;;;;13.03;9.00;;;15.60;1.00;;;;;;5028750;28;20184;-80
2021/09/07 02:57:35;;;;;;;14.13;9.27;;;15.50;1.00;;;;;;5014553;28;20200;-80
2021/09/07 03:00:02;;;;;;;13.00;8.53;;;;;;;;;;5024799;28;20774;-80
2021/09/07 03:02:28;;;;;;;12.57;8.57;;;;;;;;;;5022611;28;20680;-80
2021/09/07 03:04:54;;;;;;;14.37;9.37;;;;;;;;;;5020704;28;20211;-80
2021/09/07 03:07:20;;;;;;;13.57;8.83;;;;;;;;;;5029330;28;20212;-79
2021/09/07 03:09:46;;;;;;;12.73;9.00;;;;;;;;;;5035472;28;20215;-80
2021/09/07 03:12:12;;;;;;;11.47;8.53;;;;;;;;;;5015844;28;20234;-80
2021/09/07 03:14:38;;;;;;;12.27;8.93;;;15.40;1.00;;;;;;5034558;28;20188;-80
2021/09/07 03:17:04;;;;;;;12.33;8.83;;;;;;;;;;5037414;28;20195;-80
2021/09/07 03:19:30;;;;;;;12.63;8.90;;;15.30;1.00;;;;;;5032033;28;20580;-80
2021/09/07 03:21:56;;;;;;;13.60;9.67;;;;;;;;;;5027443;28;20281;-80
2021/09/07 03:24:22;;;;;;;14.13;9.40;;;15.20;1.00;;;;;;5034752;28;20207;-80
2021/09/07 03:26:48;;;;;;;12.83;8.73;;;;;;;;;;5030355;28;20203;-80
2021/09/07 03:29:14;;;;;;;12.60;9.20;;;;;;;;;;5033106;28;20202;-80
2021/09/07 03:31:40;;;;;;;12.83;8.67;;;;;;;;;;5027906;28;20194;-80
2021/09/07 03:34:05;;;;;;;13.17;9.40;;;15.20;1.00;;;;;;5017481;28;20569;-80
2021/09/07 03:36:31;;;;;;;14.53;9.33;;;15.10;1.00;;;;;;5040810;28;20192;-80
2021/09/07 03:38:57;;;;;;;15.27;9.37;;;15.20;1.00;;;;;;5041535;28;20203;-80
2021/09/07 03:41:23;;;;;;;15.50;9.00;;;;;;;;;;5022552;28;20186;-80
2021/09/07 03:43:49;;;;;;;13.73;9.27;;;;;;;;;;5039277;28;20192;-80
2021/09/07 03:46:15;;;;;;;18.33;9.30;;;15.10;1.00;;;;;;5019801;28;20191;-80
2021/09/07 03:48:41;;;;;;;13.60;9.87;;;;;;;;;;5023238;28;20223;-80
2021/09/07 03:51:07;;;;;;;13.70;9.90;;;15.30;1.00;;;;;;5034171;28;20222;-80
2021/09/07 03:53:33;;;;;;;13.37;9.30;;;;;;;;;;5036570;28;20186;-80
2021/09/07 03:55:59;;;;;;;14.77;9.63;;;;;;;;;;5018749;28;20192;-80
2021/09/07 03:58:25;;;;;;;16.33;10.50;;;15.30;1.00;;;;;;5022420;28;20293;-80
2021/09/07 04:00:51;;;;;;;12.80;9.47;;;;;;;;;;5025762;28;20227;-80
2021/09/07 04:03:19;;;;;;;14.40;9.43;;;15.30;1.00;;;;;;5021121;28;20214;-80
2021/09/07 04:05:45;;;;;;;14.70;9.97;;;15.30;1.00;;;;;;5023429;28;20321;-80
2021/09/07 04:08:11;;;;;;;15.07;9.17;;;;;;;;;;5038309;28;20216;-80
2021/09/07 04:10:37;;;;;;;14.00;10.27;;;;;;;;;;5018419;28;20195;-80
2021/09/07 04:13:04;;;;;;;12.83;9.47;;;;;;;;;;5031945;28;20584;-80
2021/09/07 04:15:30;;;;;;;15.50;9.83;;;;;;;;;;5013497;28;20180;-80
2021/09/07 04:17:56;;;;;;;17.17;9.30;;;;;;;;;;5034080;28;20246;-80
2021/09/07 04:20:22;;;;;;;13.20;8.57;;;15.50;1.00;;;;;;5021615;28;20206;-80
2021/09/07 04:22:48;;;;;;;16.77;10.17;;;;;;;;;;5025426;28;20199;-80
2021/09/07 04:25:14;;;;;;;14.27;9.40;;;;;;;;;;5041308;28;20194;-81
2021/09/07 04:27:40;;;;;;;13.27;9.67;;;;;;;;;;5024779;28;20298;-80
2021/09/07 04:30:07;;;;;;;14.63;9.93;;;15.50;1.00;;;;;;5026515;28;20191;-80
2021/09/07 04:32:33;;;;;;;13.67;8.53;;;;;;;;;;5037867;28;20191;-79
2021/09/07 04:34:59;;;;;;;16.13;9.33;;;15.50;1.00;;;;;;5036531;28;20192;-80
2021/09/07 04:37:25;;;;;;;13.10;9.03;;;;;;;;;;5036607;28;20226;-79
2021/09/07 04:39:50;;;;;;;12.67;9.70;;;15.50;1.00;;;;;;5038198;28;20199;-79
2021/09/07 04:42:18;;;;;;;14.57;9.97;;;15.50;1.00;;;;;;5026347;28;20610;-79
2021/09/07 04:44:44;;;;;;;15.97;9.77;;;15.40;1.00;;;;;;5020063;28;20278;-79
2021/09/07 04:47:10;;;;;;;13.57;9.20;;;15.50;1.00;;;;;;5023626;28;20211;-79
2021/09/07 04:49:36;;;;;;;14.60;9.53;;;;;;;;;;5037373;28;20184;-79
2021/09/07 04:52:02;;;;;;;14.73;9.90;;;;;;;;;;5039396;28;20187;-79
2021/09/07 04:54:28;;;;;;;14.93;9.60;;;;;;;;;;5019391;28;20203;-79
2021/09/07 04:56:54;;;;;;;12.00;9.03;;;15.40;1.00;;;;;;5035821;28;20203;-79
2021/09/07 04:59:20;;;;;;;14.93;10.07;;;;;;;;;;5038688;28;20192;-79
2021/09/07 05:01:46;;;;;;;15.77;11.20;;;15.40;1.00;;;;;;5023851;28;20200;-79
2021/09/07 05:04:12;;;;;;;16.33;9.93;;;;;;;;;;5016460;28;20219;-79
2021/09/07 05:06:38;;;;;;;17.53;10.37;;;15.50;1.00;;;;;;5037793;28;20200;-79
2021/09/07 05:09:04;;;;;;;16.43;10.33;;;;;;;;;;5038885;28;20246;-79
2021/09/07 05:11:30;;;;;;;11.97;8.83;;;;;;;;;;5013954;28;20200;-79
2021/09/07 05:13:56;;;;;;;16.57;9.77;;;15.60;1.00;;;;;;5027145;28;20191;-79
2021/09/07 05:16:22;;;;;;;14.77;9.67;;;;;;;;;;5020341;28;20242;-79
2021/09/07 05:18:48;;;;;;;13.17;10.17;;;;;;;;;;5030194;28;20612;-79
2021/09/07 05:21:14;;;;;;;15.57;10.00;;;;;;;;;;5020765;28;20187;-79
2021/09/07 05:23:40;;;;;;;15.10;10.40;;;;;;;;;;5004581;28;20196;-79
2021/09/07 05:26:06;;;;;;;12.37;8.73;;;;;;;;;;5040049;28;20226;-79
2021/09/07 05:28:33;;;;;;;15.63;10.13;;;;;;;;;;5038992;28;20263;-79
2021/09/07 05:30:58;;;;;;;19.33;10.87;;;15.50;1.00;;;;;;5023342;28;20199;-79
2021/09/07 05:33:25;;;;;;;17.63;10.50;;;;;;;;;;5008380;28;20200;-79
2021/09/07 05:35:51;;;;;;;13.90;9.83;;;15.60;1.00;;;;;;5038570;28;20662;-79
2021/09/07 05:38:16;;;;;;;15.87;9.63;;;15.50;1.00;;;;;;5020872;28;20199;-79
2021/09/07 05:40:43;;;;;;;17.33;10.27;;;;;;;;;;5015693;28;20482;-79
2021/09/07 05:43:09;;;;;;;15.57;9.87;;;15.70;1.00;;;;;;5036655;28;20198;-79
2021/09/07 05:45:35;;;;;;;17.03;10.07;;;15.70;1.00;;;;;;5031172;28;20192;-79
2021/09/07 05:48:01;;;;;;;15.77;9.67;;;15.70;1.00;;;;;;5031465;28;20302;-80
2021/09/07 05:50:26;;;;;;;15.10;10.63;;;15.80;1.00;;;;;;5046370;28;20223;-79
2021/09/07 05:52:52;;;;;;;13.17;9.27;;;15.80;1.00;;;;;;5020465;28;20547;-80
2021/09/07 05:55:18;;;;;;;13.00;9.13;;;;;;;;;;5022265;28;20194;-82
2021/09/07 05:57:44;;;;;;;13.47;10.13;;;;;;;;;;5013916;28;20261;-79
2021/09/07 06:00:11;;;;;;;14.80;9.60;;;16.00;1.00;;;;;;5036923;28;20233;-79
2021/09/07 06:02:37;;;;;;;16.83;9.97;;;16.20;1.00;;;;;;5032494;28;20195;-79
2021/09/07 06:05:04;;;;;;;16.07;9.93;;;16.20;1.00;;;;;;5039753;28;20224;-79
2021/09/07 06:07:29;;;;;;;15.63;9.77;;;16.30;1.00;;;;;;5029928;28;20321;-80
2021/09/07 06:09:55;;;;;;;14.43;9.93;;;16.30;1.00;;;;;;5037681;28;20217;-80
2021/09/07 06:12:21;;;;;;;13.70;10.03;;;16.40;1.00;;;;;;5024801;28;20252;-80
2021/09/07 06:14:46;;;;;;;18.63;10.07;;;16.40;1.00;;;;;;5019360;28;20191;-80
2021/09/07 06:17:12;;;;;;;18.63;10.03;;;16.60;1.00;;;;;;5041201;28;20197;-80
2021/09/07 06:19:38;;;;;;;15.10;10.67;;;16.60;1.00;;;;;;5016247;28;20276;-80
2021/09/07 06:22:04;;;;;;;16.57;10.40;;;16.70;1.00;;;;;;5036929;28;20809;-80
2021/09/07 06:24:30;;;;;;;16.50;9.77;;;16.70;1.00;;;;;;5034509;28;20202;-80
2021/09/07 06:26:55;;;;;;;13.37;9.60;;;16.70;1.00;;;;;;5021575;28;20224;-80
2021/09/07 06:29:21;;;;;;;16.10;10.17;;;;;;;;;;5040245;28;20190;-80
2021/09/07 06:31:47;;;;;;;15.00;9.80;;;;;;;;;;5041384;28;20649;-80
2021/09/07 06:34:14;;;;;;;11.87;9.40;;;;;;;;;;5042030;28;20193;-80
2021/09/07 06:36:40;;;;;;;12.63;9.50;;;;;;;;;;5038295;28;20198;-80
2021/09/07 06:39:06;;;;;;;15.90;9.50;;;;;;;;;;5015581;28;20199;-80
2021/09/07 06:41:32;;;;;;;15.47;9.83;;;;;;;;;;5037182;28;20315;-79
2021/09/07 06:43:57;;;;;;;16.53;10.13;;;17.30;1.00;;;;;;5037832;28;20196;-79
2021/09/07 06:46:23;;;;;;;14.97;9.63;;;17.30;1.00;;;;;;5017605;28;20194;-79
2021/09/07 06:48:48;;;;;;;16.23;10.07;;;17.40;1.00;;;;;;5021706;28;20224;-79
2021/09/07 06:51:14;;;;;;;18.43;10.40;;;;;;;;;;5020748;28;20338;-81
2021/09/07 06:53:40;;;;;;;15.97;11.03;;;;;;;;;;5025766;28;20225;-80
2021/09/07 06:56:06;;;;;;;14.80;9.83;;;17.60;1.00;;;;;;5043263;28;20183;-79
2021/09/07 06:58:32;;;;;;;15.83;9.97;;;17.60;1.00;;;;;;5037507;28;20280;-79
2021/09/07 07:00:57;;;;;;;12.63;9.60;;;17.70;1.00;;;;;;5013651;28;20251;-79
2021/09/07 07:03:23;;;;;;;15.70;10.13;;;17.80;1.00;;;;;;5040400;28;20207;-79
2021/09/07 07:05:49;;;;;;;12.63;9.63;;;;;;;;;;5036179;28;20191;-78
2021/09/07 07:08:15;;;;;;;18.30;10.87;;;18.10;1.00;;;;;;5012652;28;20781;-78
2021/09/07 07:10:40;;;;;;;15.40;10.27;;;18.10;1.00;;;;;;5018988;28;20270;-79
2021/09/07 07:13:06;;;;;;;14.43;10.10;;;18.40;1.00;;;;;;5038355;28;20187;-79
2021/09/07 07:15:32;;;;;;;14.17;9.33;;;;;;;;;;5031546;28;20761;-78
2021/09/07 07:17:58;;;;;;;17.07;10.33;;;18.60;1.00;;;;;;5036133;28;20198;-80
2021/09/07 07:20:24;;;;;;;15.67;9.77;;;;;;;;;;5033016;28;20206;-78
2021/09/07 07:22:50;;;;;;;18.10;9.37;;;18.80;1.00;;;;;;5037529;28;20871;-79
2021/09/07 07:25:16;;;;;;;16.87;9.50;;;18.90;1.00;;;;;;5037040;28;20193;-79
2021/09/07 07:27:42;;;;;;;15.80;9.37;;;19.00;1.00;;;;;;5017650;28;20326;-78
2021/09/07 07:30:09;;;;;;;12.87;9.80;;;19.10;1.00;;;;;;5034210;28;20177;-79
2021/09/07 07:32:35;;;;;;;15.07;10.20;;;19.30;1.00;;;;;;5035119;28;20206;-79
2021/09/07 07:35:01;;;;;;;15.90;10.13;;;19.30;1.00;;;;;;5038851;28;20183;-79
2021/09/07 07:37:26;;;;;;;16.40;9.37;;;19.50;1.00;;;;;;5020569;28;20197;-80
2021/09/07 07:39:52;;;;;;;14.03;9.10;;;;;;;;;;5022102;28;20225;-80
2021/09/07 07:42:18;;;;;;;12.97;9.73;;;19.60;1.00;;;;;;5033223;28;20235;-80
2021/09/07 07:44:45;;;;;;;15.83;9.67;;;;;;;;;;5023159;28;20197;-80
2021/09/07 07:47:10;;;;;;;17.23;10.30;;;20.00;1.00;;;;;;5035841;28;20779;-79
2021/09/07 07:49:38;;;;;;;13.67;9.57;;;;;;;;;;5022318;28;20192;-80
2021/09/07 07:52:04;;;;;;;16.60;10.87;;;20.10;1.00;;;;;;5035807;28;20202;-80
2021/09/07 07:54:30;;;;;;;14.37;9.43;;;;;;;;;;5037873;28;20193;-80
2021/09/07 07:56:55;;;;;;;14.40;9.33;;;20.10;1.00;;;;;;5022228;28;20227;-80
2021/09/07 07:59:21;;;;;;;15.50;9.93;;;;;;;;;;5039180;28;20198;-80
2021/09/07 08:01:47;;;;;;;15.10;9.90;;;20.00;1.00;;;;;;5038315;28;20188;-80
2021/09/07 08:04:13;;;;;;;14.00;9.53;;;;;;;;;;5029287;28;20213;-80
2021/09/07 08:06:40;;;;;;;13.33;8.67;;;20.10;1.00;;;;;;5034755;28;20227;-80
2021/09/07 08:09:06;;;;;;;13.70;9.43;;;;;;;;;;5004222;28;20219;-80
2021/09/07 08:11:32;;;;;;;16.33;8.83;;;;;;;;;;5031885;28;20194;-79
2021/09/07 08:13:58;;;;;;;13.03;9.20;;;20.40;1.00;;;;;;5031653;28;20193;-79
2021/09/07 08:16:24;;;;;;;14.50;9.50;;;;;;;;;;5021545;28;20194;-79
2021/09/07 08:18:50;;;;;;;15.90;9.90;;;;;;;;;;5037904;28;20751;-79
2021/09/07 08:21:16;;;;;;;12.13;9.50;;;;;;;;;;5044034;28;20205;-79
2021/09/07 08:23:42;;;;;;;14.67;9.17;;;;;;;;;;5041733;28;20205;-79
2021/09/07 08:26:08;;;;;;;15.50;10.13;;;;;;;;;;5025748;28;20214;-79
2021/09/07 08:28:34;;;;;;;14.20;9.57;;;20.80;1.00;;;;;;5041946;28;20208;-79
2021/09/07 08:31:00;;;;;;;13.60;9.27;;;;;;;;;;5022753;28;20190;-79
2021/09/07 08:33:26;;;;;;;13.83;8.97;;;;;;;;;;5025118;28;20201;-79
2021/09/07 08:35:51;;;;;;;12.73;9.43;;;21.00;1.00;;;;;;5040411;28;20198;-79
2021/09/07 08:38:17;;;;;;;14.60;9.23;;;21.20;1.00;;;;;;5013547;28;20193;-79
2021/09/07 08:40:43;;;;;;;13.83;10.23;;;;;;;;;;5006575;28;20189;-79
2021/09/07 08:43:09;;;;;;;13.77;9.40;;;;;;;;;;5012141;28;20195;-79
2021/09/07 08:45:38;;;;;;;15.97;11.03;;;21.50;1.00;;;;;;5042707;28;20182;-79
2021/09/07 08:48:04;;;;;;;14.80;9.43;;;21.50;1.00;;;;;;5041173;28;20261;-79
2021/09/07 08:50:30;;;;;;;12.87;9.60;;;21.60;1.00;;;;;;5036701;28;20199;-79
2021/09/07 08:52:59;;;;;;;14.40;9.73;;;21.60;1.00;;;;;;5022725;28;20264;-79
2021/09/07 08:55:31;;;;;;;12.20;9.63;;;21.70;1.00;;;;;;5005097;28;20232;-79
2021/09/07 08:57:57;;;;;;;11.73;8.73;;;21.60;1.00;;;;;;5021846;28;20242;-79
2021/09/07 09:00:28;;;;;;;13.90;9.53;;;21.60;1.00;;;;;;5040590;28;20184;-79
2021/09/07 09:02:54;;;;;;;14.00;9.10;;;21.80;1.00;;;;;;5042101;28;20172;-79
2021/09/07 09:05:29;;;;;;;13.80;9.00;;;21.80;1.00;;;;;;5022812;28;20241;-79
2021/09/07 09:07:58;;;;;;;15.50;9.67;;;22.00;1.00;;;;;;5025690;28;20212;-79
2021/09/07 09:10:25;;;;;;;18.57;9.70;;;22.00;1.00;;;;;;5019878;28;20263;-79
2021/09/07 09:13:24;;;;;;;12.67;8.47;;;22.20;1.00;;;;;;5036841;28;20683;-79
2021/09/07 09:16:04;;;;;;;16.30;8.87;;;22.20;1.00;;;;;;5023749;28;20230;-79
2021/09/07 09:18:35;;;;;;;13.80;10.07;;;22.40;1.00;;;;;;5040381;28;20200;-79
2021/09/07 09:21:21;;;;;;;12.97;8.57;;;22.40;1.00;;;;;;5014108;28;20250;-80
2021/09/07 09:24:10;;;;;;;12.50;8.37;;;22.10;1.00;;;;;;5040274;28;20249;-79
2021/09/07 09:26:56;;;;;;;14.03;9.03;;;22.00;1.00;;;;;;5011400;28;20331;-79
2021/09/07 09:29:30;;;;;;;11.23;8.50;;;22.10;1.00;;;;;;5020867;28;20235;-79
2021/09/07 09:32:14;;;;;;;13.20;9.50;;;22.10;1.00;;;;;;5035581;28;20188;-79
2021/09/07 09:34:41;;;;;;;10.63;8.23;;;22.40;1.00;;;;;;5026747;28;20192;-79
2021/09/07 09:37:13;;;;;;;12.40;7.73;;;22.50;1.00;;;;;;5021799;28;20186;-79
2021/09/07 09:39:42;;;;;;;10.97;7.97;;;22.70;1.00;;;;;;5019779;28;20189;-79
2021/09/07 09:42:12;;;;;;;13.20;8.10;;;22.80;1.00;;;;;;5022055;28;20192;-79
2021/09/07 09:44:42;;;;;;;11.63;8.77;;;;;;;;;;5040708;28;20234;-79
2021/09/07 09:47:08;;;;;;;10.83;7.77;;;;;;;;;;5019177;28;20193;-79
2021/09/07 09:49:35;;;;;;;15.47;9.17;;;22.90;1.00;;;;;;5012771;28;20194;-79
2021/09/07 09:52:05;;;;;;;12.50;8.53;;;23.10;1.00;;;;;;5034863;28;20225;-79
2021/09/07 09:54:32;;;;;;;15.90;9.53;;;23.20;1.00;;;;;;5024656;28;20602;-80
2021/09/07 09:56:59;;;;;;;12.83;8.47;;;23.30;1.00;;;;;;5036601;28;20218;-79
2021/09/07 09:59:27;;;;;;;14.03;8.77;;;23.20;1.00;;;;;;5021295;28;20186;-79
2021/09/07 10:01:54;;;;;;;14.30;8.50;;;23.30;1.00;;;;;;5035222;28;20212;-79
2021/09/07 10:04:21;;;;;;;12.50;8.50;;;;;;;;;;5025270;28;20273;-79
2021/09/07 10:06:51;;;;;;;13.00;8.20;;;23.50;1.00;;;;;;5022178;28;20213;-79
2021/09/07 10:09:23;;;;;;;11.13;8.47;;;23.40;1.00;;;;;;5023867;28;20308;-79
2021/09/07 10:12:05;;;;;;;11.87;8.73;;;23.60;1.00;;;;;;5034905;28;20654;-79
2021/09/07 10:14:34;;;;;;;13.83;9.23;;;23.80;1.00;;;;;;5039395;28;20192;-79
2021/09/07 10:20:09;;;;;;;15.40;8.63;;;;;;;;;;5034600;28;20187;-79
2021/09/07 10:26:01;;;;;;;11.77;8.43;;;24.00;1.00;;;;;;5028604;28;20201;-78
2021/09/07 10:28:35;;;;;;;10.17;8.03;;;24.20;1.00;;;;;;5030944;28;20214;-78
2021/09/07 10:31:02;;;;;;;12.47;8.80;;;24.30;1.00;;;;;;5039423;28;20196;-77
2021/09/07 10:33:44;;;;;;;13.03;9.20;;;24.30;1.00;;;;;;5036551;28;20194;-78
2021/09/07 10:36:12;;;;;;;13.93;8.53;;;24.40;1.00;;;;;;5015028;28;20199;-78
2021/09/07 10:38:39;;;;;;;11.27;8.43;;;24.60;1.00;;;;;;5004948;28;20637;-79
2021/09/07 10:41:07;;;;;;;13.43;8.23;;;24.80;1.00;;;;;;5029315;28;20257;-79
2021/09/07 10:43:51;;;;;;;13.77;8.68;;;25.00;1.00;;;;;;5016166;28;20193;-78
2021/09/07 10:46:40;;;;;;;10.63;8.48;;;25.10;1.00;;;;;;5015225;28;20217;-79
2021/09/07 10:49:18;;;;;;;9.77;7.53;;;;;;;;;;4985139;28;20241;-81
2021/09/07 10:52:15;;;;;;;10.63;7.35;;;25.10;1.00;;;;;;5017676;28;20193;-80
2021/09/07 10:54:52;;;;;;;14.57;8.63;;;25.20;1.00;;;;;;5035632;28;20213;-80
2021/09/07 10:57:57;;;;;;;14.95;8.02;;;25.30;1.00;;;;;;5040919;28;20177;-80
2021/09/07 11:00:22;;;;;;;9.68;7.13;;;25.40;1.00;;;;;;4959155;28;20195;-84
2021/09/07 11:02:58;;;;;;;9.32;7.25;;;25.50;1.00;;;;;;4945399;28;20204;-79
2021/09/07 11:05:28;;;;;;;8.48;7.43;;;25.50;1.00;;;;;;4958658;28;20200;-78
2021/09/07 11:08:05;;;;;;;10.30;7.20;;;24.30;1.00;;;;;;4939654;28;20237;-80
2021/09/07 11:10:42;;;;;;;9.27;7.38;;;25.60;1.00;;;;;;4934310;28;20185;-79
2021/09/07 11:13:09;;;;;;;10.88;7.07;;;25.70;1.00;;;;;;4946625;28;20785;-85
2021/09/07 11:15:43;;;;;;;10.18;7.18;;;26.00;1.00;;;;;;4943787;28;20200;-80
2021/09/07 11:18:14;;;;;;;10.68;7.40;;;26.00;1.00;;;;;;4941062;28;20233;-79
2021/09/07 11:20:45;;;;;;;10.18;7.38;;;26.30;1.00;;;;;;4957808;28;20205;-80
2021/09/07 11:23:17;;;;;;;10.48;7.22;;;26.30;1.00;;;;;;4942133;29;20178;-81
2021/09/07 11:25:48;;;;;;;9.55;7.53;;;26.40;1.00;;;;;;4939308;28;20205;-80
2021/09/07 11:28:15;;;;;;;9.75;7.65;;;26.40;1.00;;;;;;4942395;28;20209;-81
2021/09/07 11:30:42;;;;;;;10.18;7.53;;;26.80;1.00;;;;;;4965137;28;20191;-80
2021/09/07 11:33:23;;;;;;;10.45;7.25;;;27.00;1.00;;;;;;5040672;28;20202;-80
2021/09/07 11:35:52;;;;;;;10.60;7.70;;;27.00;1.00;;;;;;5044248;28;20183;-81
2021/09/07 11:38:24;;;;;;;11.45;7.95;;;27.20;1.00;;;;;;5031017;28;20187;-79
2021/09/07 11:40:53;;;;;;;10.10;7.53;;;27.10;1.00;;;;;;5042296;28;20183;-80
2021/09/07 11:43:44;;;;;;;9.80;8.18;;;27.30;1.00;;;;;;5020305;28;20222;-81
2021/09/07 11:46:10;;;;;;;11.40;7.43;;;28.00;1.00;;;;;;5014572;28;20195;-80
2021/09/07 11:48:38;;;;;;;10.50;7.80;;;28.50;1.00;;;;;;5039708;28;20756;-78
2021/09/07 11:51:08;;;;;;;10.25;8.02;;;29.00;1.00;;;;;;5029752;28;20187;-80
2021/09/07 11:53:34;;;;;;;9.65;7.90;;;;;;;;;;5018959;28;20675;-79
2021/09/07 11:56:00;;;;;;;9.27;7.72;;;30.00;1.00;;;;;;5029363;28;20221;-81
2021/09/07 11:58:31;;;;;;;10.93;7.13;;;30.30;1.00;;;;;;5039601;28;20188;-82
2021/09/07 12:01:10;;;;;;;9.98;8.32;;;30.30;1.00;;;;;;5033913;28;20561;-83
2021/09/07 12:03:38;;;;;;;12.38;7.28;;;29.70;1.00;;;;;;5010768;28;20695;-81
2021/09/07 12:06:05;;;;;;;9.63;7.47;;;29.70;1.00;;;;;;5040566;28;20183;-81
2021/09/07 12:08:35;;;;;;;11.52;7.80;;;29.40;1.00;;;;;;5045560;28;20222;-81
2021/09/07 12:11:01;;;;;;;11.00;7.93;;;29.50;1.00;;;;;;5043685;28;20205;-81
2021/09/07 12:13:28;;;;;;;10.88;7.82;;;;;;;;;;5030881;28;20187;-81
2021/09/07 12:15:53;;;;;;;9.68;7.68;;;31.10;1.00;;;;;;5011258;28;20192;-81
2021/09/07 12:18:35;;;;;;;9.88;7.93;;;;;;;;;;5041581;28;20195;-81
2021/09/07 12:21:12;;;;;;;9.85;7.00;;;31.40;1.00;;;;;;5044256;28;20246;-82
2021/09/07 12:23:44;;;;;;;10.57;7.85;;;32.10;1.00;;;;;;5022456;28;20207;-80
2021/09/07 12:26:11;;;;;;;9.65;7.55;;;32.10;1.00;;;;;;5041068;28;20214;-79
2021/09/07 12:28:39;;;;;;;10.02;7.50;;;32.90;1.00;;;;;;5037305;28;20202;-79
2021/09/07 12:31:20;;;;;;;11.23;7.43;;;33.40;1.00;;;;;;5039985;28;20194;-80
2021/09/07 12:33:49;;;;;;;11.35;8.20;;;33.30;1.00;;;;;;5022133;28;20281;-80
2021/09/07 12:36:17;;;;;;;8.32;7.13;;;33.60;1.00;;;;;;5025787;28;20935;-79
2021/09/07 12:38:43;;;;;;;9.85;7.88;;;32.70;1.00;;;;;;5041914;28;20221;-80
2021/09/07 12:41:11;;;;;;;10.52;7.28;;;31.90;1.00;;;;;;5037664;28;20191;-79
2021/09/07 12:43:41;;;;;;;10.18;7.65;;;32.10;1.00;;;;;;5040213;28;20194;-80
2021/09/07 12:46:10;;;;;;;9.40;7.45;;;32.20;1.00;;;;;;5042908;28;20179;-79
2021/09/07 12:48:38;;;;;;;8.90;6.88;;;32.50;1.00;;;;;;5035630;28;20219;-79
2021/09/07 12:51:05;;;;;;;9.00;7.47;;;32.50;1.00;;;;;;5012353;28;20188;-79
2021/09/07 12:53:37;;;;;;;8.43;6.93;;;32.80;1.00;;;;;;5041564;28;20658;-79
2021/09/07 12:56:05;;;;;;;8.27;7.20;;;32.80;1.00;;;;;;5020453;28;20203;-79
2021/09/07 12:58:32;;;;;;;8.43;6.93;;;33.00;1.00;;;;;;5022530;28;20611;-80
2021/09/07 13:00:59;;;;;;;9.05;6.60;;;33.50;1.00;;;;;;5003627;28;20232;-79
2021/09/07 13:03:25;;;;;;;7.85;6.93;;;34.40;1.00;;;;;;5024310;28;20203;-79
2021/09/07 13:05:52;;;;;;;9.48;7.07;;;34.40;1.00;;;;;;5024358;28;20638;-79
2021/09/07 13:08:17;;;;;;;10.05;6.70;;;34.40;1.00;;;;;;5022337;28;20241;-79
2021/09/07 13:10:43;;;;;;;7.28;6.28;;;33.50;1.00;;;;;;5025093;28;20183;-80
2021/09/07 13:13:09;;;;;;;7.63;6.65;;;32.90;1.00;;;;;;5032114;28;20266;-79
2021/09/07 13:15:35;;;;;;;7.57;6.70;;;33.60;1.00;;;;;;5004306;28;20291;-79
2021/09/07 13:18:01;;;;;;;8.80;6.53;;;34.30;1.00;;;;;;5020995;28;20187;-79
2021/09/07 13:20:27;;;;;;;7.32;6.30;;;34.90;1.00;;;;;;5017390;28;20202;-79
2021/09/07 13:22:52;;;;;;;8.50;6.80;;;34.70;1.00;;;;;;5036269;28;20749;-79
2021/09/07 13:25:18;;;;;;;9.85;6.43;;;;;;;;;;5030300;28;20187;-79
2021/09/07 13:27:44;;;;;;;11.85;7.15;;;;;;;;;;5035299;28;20288;-79
2021/09/07 13:30:11;;;;;;;9.43;6.43;;;34.00;1.00;;;;;;5023176;28;20194;-79